Gloria d'Oeste, Brazil
Current Conditions -  °F | °C
As of 2:00 AM on Saturday 29 Nov 2014 (Local Time) from SBCY Reporting Station
Broken Clouds Broken Clouds  
Wind Chill: 75°   Ceiling: 10000
Heat Index: 75°   Visibility: 6mi
Dew Point: 73°   Wind: 3mph
Humidity: 94%   Direction: 130°SE
Pressure: 29.85"   Gusts: NA
Location:  15.77°S, 58.22°W
Report Text: SBCY 290500Z 13003KT 9999 SCT005 BKN100 24/23 Q1011 RERA
Loading
Personal Weather Stations






























Interactive Weather Map New forecast layout! Learn more

10-Day Weather Forecast

Advertisements
Track Severe Weather on mobile